sensor_id;sensor_type;location;lat;lon;timestamp;P1;durP1;ratioP1;P2;durP2;ratioP2
19223;SDS011;9746;47.180;9.776;2024-03-02T10:44:43;0.10;;;0.10;;
19223;SDS011;9746;47.180;9.776;2024-03-02T10:49:49;0.10;;;0.10;;
19223;SDS011;9746;47.180;9.776;2024-03-02T10:52:25;0.10;;;0.10;;
19223;SDS011;9746;47.180;9.776;2024-03-02T10:54:52;0.10;;;0.10;;
19223;SDS011;9746;47.180;9.776;2024-03-02T10:57:21;0.10;;;0.10;;
19223;SDS011;9746;47.180;9.776;2024-03-02T10:59:52;0.10;;;0.10;;
19223;SDS011;9746;47.180;9.776;2024-03-02T11:02:24;0.10;;;0.10;;
19223;SDS011;9746;47.180;9.776;2024-03-02T11:04:54;0.10;;;0.10;;
19223;SDS011;9746;47.180;9.776;2024-03-02T11:07:23;0.10;;;0.10;;
19223;SDS011;9746;47.180;9.776;2024-03-02T11:09:53;0.10;;;0.10;;
19223;SDS011;9746;47.180;9.776;2024-03-02T11:12:28;0.10;;;0.10;;
19223;SDS011;9746;47.180;9.776;2024-03-02T11:14:59;0.10;;;0.10;;
19223;SDS011;9746;47.180;9.776;2024-03-02T11:17:30;0.10;;;0.10;;
19223;SDS011;9746;47.180;9.776;2024-03-02T11:19:57;0.10;;;0.10;;
19223;SDS011;9746;47.180;9.776;2024-03-02T11:22:32;0.10;;;0.10;;
19223;SDS011;9746;47.180;9.776;2024-03-02T11:25:00;0.20;;;0.20;;
19223;SDS011;9746;47.180;9.776;2024-03-02T11:33:28;0.20;;;0.20;;
19223;SDS011;9746;47.180;9.776;2024-03-02T11:35:56;0.15;;;0.15;;
19223;SDS011;9746;47.180;9.776;2024-03-02T11:38:30;0.10;;;0.10;;
19223;SDS011;9746;47.180;9.776;2024-03-02T11:40:59;0.20;;;0.20;;
19223;SDS011;9746;47.180;9.776;2024-03-02T11:43:29;0.15;;;0.15;;
19223;SDS011;9746;47.180;9.776;2024-03-02T11:46:00;0.17;;;0.17;;
19223;SDS011;9746;47.180;9.776;2024-03-02T11:51:06;0.20;;;0.20;;
19223;SDS011;9746;47.180;9.776;2024-03-02T11:53:35;0.10;;;0.10;;
19223;SDS011;9746;47.180;9.776;2024-03-02T11:56:09;0.20;;;0.20;;
19223;SDS011;9746;47.180;9.776;2024-03-02T12:01:24;0.10;;;0.10;;
19223;SDS011;9746;47.180;9.776;2024-03-02T12:03:52;0.20;;;0.20;;
19223;SDS011;9746;47.180;9.776;2024-03-02T12:06:20;0.20;;;0.20;;
19223;SDS011;9746;47.180;9.776;2024-03-02T12:08:52;0.15;;;0.15;;
19223;SDS011;9746;47.180;9.776;2024-03-02T12:11:20;0.17;;;0.17;;
19223;SDS011;9746;47.180;9.776;2024-03-02T12:13:53;0.17;;;0.17;;
19223;SDS011;9746;47.180;9.776;2024-03-02T12:16:24;0.17;;;0.17;;
19223;SDS011;9746;47.180;9.776;2024-03-02T12:18:53;0.10;;;0.10;;
19223;SDS011;9746;47.180;9.776;2024-03-02T12:21:21;0.10;;;0.10;;
19223;SDS011;9746;47.180;9.776;2024-03-02T12:23:50;0.10;;;0.10;;
19223;SDS011;9746;47.180;9.776;2024-03-02T12:26:19;0.00;;;0.00;;
19223;SDS011;9746;47.180;9.776;2024-03-02T12:28:46;0.10;;;0.10;;
19223;SDS011;9746;47.180;9.776;2024-03-02T12:31:14;0.10;;;0.10;;
19223;SDS011;9746;47.180;9.776;2024-03-02T12:33:46;0.10;;;0.10;;
19223;SDS011;9746;47.180;9.776;2024-03-02T12:36:13;0.15;;;0.15;;
19223;SDS011;9746;47.180;9.776;2024-03-02T12:38:42;0.10;;;0.10;;
19223;SDS011;9746;47.180;9.776;2024-03-02T12:41:10;0.10;;;0.10;;
19223;SDS011;9746;47.180;9.776;2024-03-02T12:43:43;0.10;;;0.10;;
19223;SDS011;9746;47.180;9.776;2024-03-02T12:46:10;0.10;;;0.10;;
19223;SDS011;9746;47.180;9.776;2024-03-02T12:51:09;0.10;;;0.10;;
19223;SDS011;9746;47.180;9.776;2024-03-02T12:53:38;0.10;;;0.10;;
19223;SDS011;9746;47.180;9.776;2024-03-02T12:56:06;0.10;;;0.10;;
19223;SDS011;9746;47.180;9.776;2024-03-02T12:58:38;0.10;;;0.10;;
19223;SDS011;9746;47.180;9.776;2024-03-02T13:01:06;0.10;;;0.10;;
19223;SDS011;9746;47.180;9.776;2024-03-02T13:03:36;0.10;;;0.10;;
19223;SDS011;9746;47.180;9.776;2024-03-02T13:06:04;0.10;;;0.10;;
19223;SDS011;9746;47.180;9.776;2024-03-02T13:08:36;0.10;;;0.10;;
19223;SDS011;9746;47.180;9.776;2024-03-02T13:11:05;0.10;;;0.10;;
19223;SDS011;9746;47.180;9.776;2024-03-02T13:13:38;0.10;;;0.10;;
19223;SDS011;9746;47.180;9.776;2024-03-02T13:16:07;0.10;;;0.10;;
19223;SDS011;9746;47.180;9.776;2024-03-02T13:18:36;0.10;;;0.10;;
19223;SDS011;9746;47.180;9.776;2024-03-02T13:21:04;0.10;;;0.10;;
19223;SDS011;9746;47.180;9.776;2024-03-02T13:23:32;0.10;;;0.10;;
19223;SDS011;9746;47.180;9.776;2024-03-02T13:26:03;0.10;;;0.10;;
19223;SDS011;9746;47.180;9.776;2024-03-02T13:28:32;0.00;;;0.00;;
19223;SDS011;9746;47.180;9.776;2024-03-02T13:31:00;0.10;;;0.10;;
19223;SDS011;9746;47.180;9.776;2024-03-02T13:33:29;0.10;;;0.10;;
19223;SDS011;9746;47.180;9.776;2024-03-02T13:35:58;0.00;;;0.00;;
19223;SDS011;9746;47.180;9.776;2024-03-02T13:38:27;0.00;;;0.00;;
19223;SDS011;9746;47.180;9.776;2024-03-02T13:40:55;0.00;;;0.00;;
19223;SDS011;9746;47.180;9.776;2024-03-02T13:43:28;0.00;;;0.00;;
19223;SDS011;9746;47.180;9.776;2024-03-02T13:45:58;0.00;;;0.00;;
19223;SDS011;9746;47.180;9.776;2024-03-02T13:48:26;0.00;;;0.00;;
19223;SDS011;9746;47.180;9.776;2024-03-02T13:50:53;0.00;;;0.00;;
19223;SDS011;9746;47.180;9.776;2024-03-02T13:53:21;0.00;;;0.00;;
19223;SDS011;9746;47.180;9.776;2024-03-02T13:55:48;0.00;;;0.00;;
19223;SDS011;9746;47.180;9.776;2024-03-02T13:58:16;0.00;;;0.00;;
19223;SDS011;9746;47.180;9.776;2024-03-02T14:00:45;0.00;;;0.00;;
19223;SDS011;9746;47.180;9.776;2024-03-02T14:03:12;0.00;;;0.00;;
19223;SDS011;9746;47.180;9.776;2024-03-02T14:05:39;0.00;;;0.00;;
19223;SDS011;9746;47.180;9.776;2024-03-02T14:08:07;0.00;;;0.00;;
19223;SDS011;9746;47.180;9.776;2024-03-02T14:13:08;0.00;;;0.00;;
19223;SDS011;9746;47.180;9.776;2024-03-02T14:15:44;0.00;;;0.00;;
19223;SDS011;9746;47.180;9.776;2024-03-02T14:18:12;0.00;;;0.00;;
19223;SDS011;9746;47.180;9.776;2024-03-02T14:20:45;0.00;;;0.00;;
19223;SDS011;9746;47.180;9.776;2024-03-02T14:23:17;0.00;;;0.00;;
19223;SDS011;9746;47.180;9.776;2024-03-02T14:25:45;0.00;;;0.00;;
19223;SDS011;9746;47.180;9.776;2024-03-02T14:28:13;0.00;;;0.00;;
19223;SDS011;9746;47.180;9.776;2024-03-02T14:30:49;0.00;;;0.00;;
19223;SDS011;9746;47.180;9.776;2024-03-02T14:33:17;0.00;;;0.00;;
19223;SDS011;9746;47.180;9.776;2024-03-02T14:35:44;0.00;;;0.00;;
19223;SDS011;9746;47.180;9.776;2024-03-02T14:38:12;0.03;;;0.03;;
19223;SDS011;9746;47.180;9.776;2024-03-02T14:40:42;0.10;;;0.10;;
19223;SDS011;9746;47.180;9.776;2024-03-02T14:43:10;0.00;;;0.00;;
19223;SDS011;9746;47.180;9.776;2024-03-02T14:48:35;0.10;;;0.10;;
19223;SDS011;9746;47.180;9.776;2024-03-02T14:51:03;0.10;;;0.10;;
19223;SDS011;9746;47.180;9.776;2024-03-02T14:53:31;0.00;;;0.00;;
19223;SDS011;9746;47.180;9.776;2024-03-02T14:58:45;0.10;;;0.10;;
19223;SDS011;9746;47.180;9.776;2024-03-02T15:01:12;0.10;;;0.10;;
19223;SDS011;9746;47.180;9.776;2024-03-02T15:03:42;0.10;;;0.10;;
19223;SDS011;9746;47.180;9.776;2024-03-02T15:06:10;0.10;;;0.10;;
19223;SDS011;9746;47.180;9.776;2024-03-02T15:08:37;0.10;;;0.10;;
19223;SDS011;9746;47.180;9.776;2024-03-02T15:11:08;0.10;;;0.10;;
19223;SDS011;9746;47.180;9.776;2024-03-02T15:13:36;0.00;;;0.00;;
19223;SDS011;9746;47.180;9.776;2024-03-02T15:16:05;0.10;;;0.10;;
19223;SDS011;9746;47.180;9.776;2024-03-02T15:18:33;0.10;;;0.10;;
19223;SDS011;9746;47.180;9.776;2024-03-02T15:21:02;0.10;;;0.10;;
19223;SDS011;9746;47.180;9.776;2024-03-02T15:23:30;0.10;;;0.10;;
19223;SDS011;9746;47.180;9.776;2024-03-02T15:25:58;0.10;;;0.10;;
19223;SDS011;9746;47.180;9.776;2024-03-02T15:28:26;0.10;;;0.10;;
19223;SDS011;9746;47.180;9.776;2024-03-02T15:30:53;0.10;;;0.10;;
19223;SDS011;9746;47.180;9.776;2024-03-02T15:33:21;0.10;;;0.10;;
19223;SDS011;9746;47.180;9.776;2024-03-02T15:35:51;0.10;;;0.10;;
19223;SDS011;9746;47.180;9.776;2024-03-02T15:38:20;0.10;;;0.10;;
19223;SDS011;9746;47.180;9.776;2024-03-02T15:40:49;0.10;;;0.10;;
19223;SDS011;9746;47.180;9.776;2024-03-02T15:43:16;0.15;;;0.15;;
19223;SDS011;9746;47.180;9.776;2024-03-02T15:45:44;0.10;;;0.10;;
19223;SDS011;9746;47.180;9.776;2024-03-02T15:48:14;0.15;;;0.15;;
19223;SDS011;9746;47.180;9.776;2024-03-02T15:50:44;0.20;;;0.20;;
19223;SDS011;9746;47.180;9.776;2024-03-02T15:53:11;0.10;;;0.10;;
19223;SDS011;9746;47.180;9.776;2024-03-02T15:55:40;0.10;;;0.10;;
19223;SDS011;9746;47.180;9.776;2024-03-02T15:58:08;0.10;;;0.10;;
19223;SDS011;9746;47.180;9.776;2024-03-02T16:00:36;0.20;;;0.20;;
19223;SDS011;9746;47.180;9.776;2024-03-02T16:03:04;0.17;;;0.17;;
19223;SDS011;9746;47.180;9.776;2024-03-02T16:05:32;0.10;;;0.10;;
19223;SDS011;9746;47.180;9.776;2024-03-02T16:07:59;0.20;;;0.20;;
19223;SDS011;9746;47.180;9.776;2024-03-02T16:10:28;0.10;;;0.10;;
19223;SDS011;9746;47.180;9.776;2024-03-02T16:12:57;0.10;;;0.10;;
19223;SDS011;9746;47.180;9.776;2024-03-02T16:15:26;0.20;;;0.20;;
19223;SDS011;9746;47.180;9.776;2024-03-02T16:17:54;0.20;;;0.20;;
19223;SDS011;9746;47.180;9.776;2024-03-02T16:20:26;0.20;;;0.20;;
19223;SDS011;9746;47.180;9.776;2024-03-02T16:22:54;0.20;;;0.20;;
19223;SDS011;9746;47.180;9.776;2024-03-02T16:25:34;0.20;;;0.20;;
19223;SDS011;9746;47.180;9.776;2024-03-02T16:28:04;0.20;;;0.20;;
19223;SDS011;9746;47.180;9.776;2024-03-02T16:33:03;0.20;;;0.20;;
19223;SDS011;9746;47.180;9.776;2024-03-02T16:35:34;0.20;;;0.20;;
19223;SDS011;9746;47.180;9.776;2024-03-02T16:38:01;0.20;;;0.20;;
19223;SDS011;9746;47.180;9.776;2024-03-02T16:40:36;0.20;;;0.20;;
19223;SDS011;9746;47.180;9.776;2024-03-02T16:43:05;0.20;;;0.20;;
19223;SDS011;9746;47.180;9.776;2024-03-02T16:48:19;0.20;;;0.20;;
19223;SDS011;9746;47.180;9.776;2024-03-02T16:50:48;0.10;;;0.10;;
19223;SDS011;9746;47.180;9.776;2024-03-02T16:53:15;0.20;;;0.20;;
19223;SDS011;9746;47.180;9.776;2024-03-02T16:55:44;0.20;;;0.20;;
19223;SDS011;9746;47.180;9.776;2024-03-02T16:58:13;0.20;;;0.20;;
19223;SDS011;9746;47.180;9.776;2024-03-02T17:03:33;0.20;;;0.20;;
19223;SDS011;9746;47.180;9.776;2024-03-02T17:06:18;0.20;;;0.20;;
19223;SDS011;9746;47.180;9.776;2024-03-02T17:08:45;0.20;;;0.20;;
19223;SDS011;9746;47.180;9.776;2024-03-02T17:11:15;0.20;;;0.20;;
19223;SDS011;9746;47.180;9.776;2024-03-02T17:13:44;0.20;;;0.20;;
19223;SDS011;9746;47.180;9.776;2024-03-02T17:16:14;0.20;;;0.20;;
19223;SDS011;9746;47.180;9.776;2024-03-02T17:18:42;0.20;;;0.20;;
19223;SDS011;9746;47.180;9.776;2024-03-02T17:21:11;0.20;;;0.20;;
19223;SDS011;9746;47.180;9.776;2024-03-02T17:23:38;0.20;;;0.20;;
19223;SDS011;9746;47.180;9.776;2024-03-02T17:26:11;0.30;;;0.30;;
19223;SDS011;9746;47.180;9.776;2024-03-02T17:28:41;0.20;;;0.20;;
19223;SDS011;9746;47.180;9.776;2024-03-02T17:33:46;0.20;;;0.20;;
19223;SDS011;9746;47.180;9.776;2024-03-02T17:36:14;0.20;;;0.20;;
19223;SDS011;9746;47.180;9.776;2024-03-02T17:38:42;0.20;;;0.20;;
19223;SDS011;9746;47.180;9.776;2024-03-02T17:41:09;0.20;;;0.20;;
19223;SDS011;9746;47.180;9.776;2024-03-02T17:43:37;0.20;;;0.20;;
19223;SDS011;9746;47.180;9.776;2024-03-02T17:46:06;0.20;;;0.20;;
19223;SDS011;9746;47.180;9.776;2024-03-02T17:48:35;0.20;;;0.20;;
19223;SDS011;9746;47.180;9.776;2024-03-02T17:51:05;0.20;;;0.20;;
19223;SDS011;9746;47.180;9.776;2024-03-02T17:53:33;0.20;;;0.20;;
19223;SDS011;9746;47.180;9.776;2024-03-02T17:56:03;0.20;;;0.20;;
19223;SDS011;9746;47.180;9.776;2024-03-02T17:58:31;0.20;;;0.20;;
19223;SDS011;9746;47.180;9.776;2024-03-02T18:01:02;0.20;;;0.20;;
19223;SDS011;9746;47.180;9.776;2024-03-02T18:03:30;0.20;;;0.20;;
19223;SDS011;9746;47.180;9.776;2024-03-02T18:06:07;0.20;;;0.20;;
19223;SDS011;9746;47.180;9.776;2024-03-02T18:08:35;0.20;;;0.20;;
19223;SDS011;9746;47.180;9.776;2024-03-02T18:11:02;0.20;;;0.20;;
19223;SDS011;9746;47.180;9.776;2024-03-02T18:13:31;0.20;;;0.20;;
19223;SDS011;9746;47.180;9.776;2024-03-02T18:16:01;0.20;;;0.20;;
19223;SDS011;9746;47.180;9.776;2024-03-02T18:18:30;0.20;;;0.20;;
19223;SDS011;9746;47.180;9.776;2024-03-02T18:20:58;0.30;;;0.30;;
19223;SDS011;9746;47.180;9.776;2024-03-02T18:23:26;0.20;;;0.20;;
19223;SDS011;9746;47.180;9.776;2024-03-02T18:25:57;0.23;;;0.23;;
19223;SDS011;9746;47.180;9.776;2024-03-02T18:28:25;0.20;;;0.20;;
19223;SDS011;9746;47.180;9.776;2024-03-02T18:30:53;0.20;;;0.20;;
19223;SDS011;9746;47.180;9.776;2024-03-02T18:33:21;0.20;;;0.20;;
19223;SDS011;9746;47.180;9.776;2024-03-02T18:35:48;0.30;;;0.30;;
19223;SDS011;9746;47.180;9.776;2024-03-02T18:38:15;0.20;;;0.20;;
19223;SDS011;9746;47.180;9.776;2024-03-02T18:40:46;0.20;;;0.20;;
19223;SDS011;9746;47.180;9.776;2024-03-02T18:43:14;0.20;;;0.20;;
19223;SDS011;9746;47.180;9.776;2024-03-02T18:45:42;0.30;;;0.30;;
19223;SDS011;9746;47.180;9.776;2024-03-02T18:48:09;0.30;;;0.30;;
19223;SDS011;9746;47.180;9.776;2024-03-02T18:50:36;0.20;;;0.20;;
19223;SDS011;9746;47.180;9.776;2024-03-02T18:53:04;0.30;;;0.30;;
19223;SDS011;9746;47.180;9.776;2024-03-02T18:55:31;0.20;;;0.20;;
19223;SDS011;9746;47.180;9.776;2024-03-02T18:58:00;0.30;;;0.30;;
19223;SDS011;9746;47.180;9.776;2024-03-02T19:00:29;0.20;;;0.20;;
19223;SDS011;9746;47.180;9.776;2024-03-02T19:02:57;0.30;;;0.30;;
19223;SDS011;9746;47.180;9.776;2024-03-02T19:05:24;0.30;;;0.30;;
19223;SDS011;9746;47.180;9.776;2024-03-02T19:07:51;0.30;;;0.30;;
19223;SDS011;9746;47.180;9.776;2024-03-02T19:10:19;0.20;;;0.20;;
19223;SDS011;9746;47.180;9.776;2024-03-02T19:12:46;0.20;;;0.20;;
19223;SDS011;9746;47.180;9.776;2024-03-02T19:15:16;0.30;;;0.30;;
19223;SDS011;9746;47.180;9.776;2024-03-02T19:17:45;0.27;;;0.27;;
19223;SDS011;9746;47.180;9.776;2024-03-02T19:20:13;0.20;;;0.20;;
19223;SDS011;9746;47.180;9.776;2024-03-02T19:22:40;0.30;;;0.30;;
19223;SDS011;9746;47.180;9.776;2024-03-02T19:25:09;0.20;;;0.20;;
19223;SDS011;9746;47.180;9.776;2024-03-02T19:27:38;0.20;;;0.20;;
19223;SDS011;9746;47.180;9.776;2024-03-02T19:30:06;0.20;;;0.20;;
19223;SDS011;9746;47.180;9.776;2024-03-02T19:32:39;0.30;;;0.30;;
19223;SDS011;9746;47.180;9.776;2024-03-02T19:35:07;0.30;;;0.30;;
19223;SDS011;9746;47.180;9.776;2024-03-02T19:37:38;0.30;;;0.30;;
19223;SDS011;9746;47.180;9.776;2024-03-02T19:40:08;0.30;;;0.30;;
19223;SDS011;9746;47.180;9.776;2024-03-02T19:42:36;0.30;;;0.30;;
19223;SDS011;9746;47.180;9.776;2024-03-02T19:45:05;0.30;;;0.30;;
19223;SDS011;9746;47.180;9.776;2024-03-02T19:47:34;0.27;;;0.27;;
19223;SDS011;9746;47.180;9.776;2024-03-02T19:50:03;0.30;;;0.30;;
19223;SDS011;9746;47.180;9.776;2024-03-02T19:52:34;0.30;;;0.30;;
19223;SDS011;9746;47.180;9.776;2024-03-02T19:55:02;0.30;;;0.30;;
19223;SDS011;9746;47.180;9.776;2024-03-02T19:57:41;0.20;;;0.20;;
19223;SDS011;9746;47.180;9.776;2024-03-02T20:00:10;0.30;;;0.30;;
19223;SDS011;9746;47.180;9.776;2024-03-02T20:05:12;0.30;;;0.30;;
19223;SDS011;9746;47.180;9.776;2024-03-02T20:07:40;0.30;;;0.30;;
19223;SDS011;9746;47.180;9.776;2024-03-02T20:10:08;0.30;;;0.30;;
19223;SDS011;9746;47.180;9.776;2024-03-02T20:12:38;0.30;;;0.30;;
19223;SDS011;9746;47.180;9.776;2024-03-02T20:15:06;0.30;;;0.30;;
19223;SDS011;9746;47.180;9.776;2024-03-02T20:17:37;0.30;;;0.30;;
19223;SDS011;9746;47.180;9.776;2024-03-02T20:20:05;0.30;;;0.30;;
19223;SDS011;9746;47.180;9.776;2024-03-02T20:22:36;0.30;;;0.30;;
19223;SDS011;9746;47.180;9.776;2024-03-02T20:25:03;0.30;;;0.30;;
19223;SDS011;9746;47.180;9.776;2024-03-02T20:27:36;0.30;;;0.30;;
19223;SDS011;9746;47.180;9.776;2024-03-02T20:30:03;0.30;;;0.30;;
19223;SDS011;9746;47.180;9.776;2024-03-02T20:32:32;0.30;;;0.30;;
19223;SDS011;9746;47.180;9.776;2024-03-02T20:35:01;0.20;;;0.20;;
19223;SDS011;9746;47.180;9.776;2024-03-02T20:40:08;0.20;;;0.20;;
19223;SDS011;9746;47.180;9.776;2024-03-02T20:42:40;0.30;;;0.30;;
19223;SDS011;9746;47.180;9.776;2024-03-02T20:45:08;0.30;;;0.30;;
19223;SDS011;9746;47.180;9.776;2024-03-02T20:47:43;0.30;;;0.30;;
19223;SDS011;9746;47.180;9.776;2024-03-02T20:50:11;0.30;;;0.30;;
19223;SDS011;9746;47.180;9.776;2024-03-02T20:52:44;0.20;;;0.20;;
19223;SDS011;9746;47.180;9.776;2024-03-02T20:55:12;0.20;;;0.20;;
19223;SDS011;9746;47.180;9.776;2024-03-02T20:57:54;0.27;;;0.27;;
19223;SDS011;9746;47.180;9.776;2024-03-02T21:00:22;0.30;;;0.30;;
19223;SDS011;9746;47.180;9.776;2024-03-02T21:03:00;0.30;;;0.30;;
19223;SDS011;9746;47.180;9.776;2024-03-02T21:05:27;0.20;;;0.20;;
19223;SDS011;9746;47.180;9.776;2024-03-02T21:10:43;0.20;;;0.20;;
